Preston, Connecticut
Current Conditions -  °F | °C
As of 2:56 AM on Saturday 20 Dec 2014 (Local Time) from KGON Reporting Station
Clear Clear  
Wind Chill: 19°   Ceiling: Unl
Heat Index: 26°   Visibility: 8mi
Dew Point: 21°   Wind: 6mph
Humidity: 81%   Direction: 350°N
Pressure: 30.18"   Gusts: NA
Location:  41.51°N, 72.01°W
Report Text: KGON 200756Z AUTO 35005KT 8SM CLR M03/M06 A3018 RMK AO2 SLP220 T10331061
Loading
Personal Weather Stations






























Interactive Weather Map New forecast layout! Learn more

10-Day Weather Forecast

Advertisements
Track Severe Weather on mobile